createdAt,value
2019-02-09T00:00:45.965Z,89.24
2019-02-09T00:02:52.934Z,89.13
2019-02-09T00:04:59.914Z,89.03
2019-02-09T00:07:12.018Z,89.04
2019-02-09T00:09:18.856Z,88.96
2019-02-09T00:11:25.601Z,88.90
2019-02-09T00:13:32.635Z,88.86
2019-02-09T00:15:39.895Z,88.85
2019-02-09T00:17:47.306Z,88.87
2019-02-09T00:19:53.836Z,88.83
2019-02-09T00:22:02.026Z,88.83
2019-02-09T00:24:08.835Z,88.95
2019-02-09T00:26:16.871Z,88.89
2019-02-09T00:28:23.455Z,88.83
2019-02-09T00:30:30.077Z,88.81
2019-02-09T00:32:38.300Z,88.68
2019-02-09T00:34:44.927Z,88.57
2019-02-09T00:36:51.656Z,88.54
2019-02-09T00:38:58.377Z,88.45
2019-02-09T00:41:05.366Z,88.44
2019-02-09T00:43:12.106Z,88.38
2019-02-09T00:45:30.296Z,88.36
2019-02-09T00:47:38.467Z,88.25
2019-02-09T00:49:45.526Z,88.17
2019-02-09T00:51:52.192Z,88.17
2019-02-09T00:54:00.158Z,88.14
2019-02-09T00:56:08.758Z,88.02
2019-02-09T00:58:16.238Z,87.86
2019-02-09T01:00:34.699Z,87.72
2019-02-09T01:02:41.866Z,87.70
2019-02-09T01:04:49.140Z,87.59
2019-02-09T01:06:58.630Z,87.62
2019-02-09T01:09:08.547Z,87.64
2019-02-09T01:11:15.260Z,87.55
2019-02-09T01:13:23.331Z,87.66
2019-02-09T01:15:31.355Z,87.67
2019-02-09T01:17:37.865Z,87.60
2019-02-09T01:19:44.319Z,87.67
2019-02-09T01:21:52.238Z,87.75
2019-02-09T01:23:58.885Z,87.82
2019-02-09T01:26:05.987Z,87.86
2019-02-09T01:28:12.990Z,87.96
2019-02-09T01:30:22.840Z,88.01
2019-02-09T01:32:29.802Z,88.04
2019-02-09T01:34:36.501Z,88.08
2019-02-09T01:36:47.247Z,88.09
2019-02-09T01:38:54.098Z,88.10
2019-02-09T01:41:01.104Z,88.19
2019-02-09T01:43:07.960Z,88.17
2019-02-09T01:45:21.642Z,88.14
2019-02-09T01:47:28.305Z,88.19
2019-02-09T01:49:35.339Z,88.26
2019-02-09T01:51:42.186Z,88.33
2019-02-09T01:53:49.397Z,88.43
2019-02-09T01:55:57.538Z,88.47
2019-02-09T01:58:04.066Z,88.49
2019-02-09T02:00:23.544Z,88.57
2019-02-09T02:02:32.278Z,88.60
2019-02-09T02:04:39.385Z,88.60
2019-02-09T02:06:46.286Z,88.61
2019-02-09T02:08:53.189Z,88.60
2019-02-09T02:10:59.763Z,88.52
2019-02-09T02:13:09.535Z,88.50
2019-02-09T02:15:19.955Z,88.46
2019-02-09T02:17:26.835Z,88.40
2019-02-09T02:19:33.575Z,88.39
2019-02-09T02:21:41.652Z,88.31
2019-02-09T02:23:48.581Z,88.33
2019-02-09T02:25:55.306Z,88.26
2019-02-09T02:28:03.256Z,88.23
2019-02-09T02:30:23.252Z,88.14
2019-02-09T02:32:30.190Z,88.15
2019-02-09T02:34:36.861Z,88.12
2019-02-09T02:36:45.501Z,87.98
2019-02-09T02:38:52.129Z,87.97
2019-02-09T02:41:00.520Z,87.87
2019-02-09T02:43:07.671Z,87.83
2019-02-09T02:45:17.840Z,87.83
2019-02-09T02:47:24.646Z,87.79
2019-02-09T02:49:31.418Z,87.72
2019-02-09T02:51:38.081Z,87.74
2019-02-09T02:53:47.558Z,87.60
2019-02-09T02:55:54.411Z,87.50
2019-02-09T02:58:01.702Z,87.45
2019-02-09T03:00:13.938Z,87.27
2019-02-09T03:02:20.578Z,87.28
2019-02-09T03:04:27.508Z,87.04
2019-02-09T03:06:35.526Z,87.06
2019-02-09T03:10:56.967Z,86.81
2019-02-09T03:13:04.933Z,86.80
2019-02-09T03:15:15.715Z,86.60
2019-02-09T03:17:24.383Z,86.46
2019-02-09T03:19:31.132Z,86.27
2019-02-09T03:21:37.908Z,86.14
2019-02-09T03:23:44.792Z,85.99
2019-02-09T03:25:51.416Z,85.85
2019-02-09T03:27:58.475Z,85.62
2019-02-09T03:30:11.133Z,85.72
2019-02-09T03:32:19.344Z,85.66
2019-02-09T03:34:26.021Z,85.41
2019-02-09T03:36:34.232Z,85.49
2019-02-09T03:38:42.555Z,85.35
2019-02-09T03:40:49.347Z,85.18
2019-02-09T03:42:56.050Z,84.96
2019-02-09T03:45:05.515Z,84.87
2019-02-09T03:47:12.344Z,84.74
2019-02-09T03:49:19.047Z,84.47
2019-02-09T03:51:26.285Z,84.52
2019-02-09T03:53:33.034Z,84.62
2019-02-09T03:55:39.822Z,84.41
2019-02-09T03:57:46.547Z,84.09
2019-02-09T03:59:56.342Z,83.94
2019-02-09T04:02:04.969Z,83.48
2019-02-09T04:04:12.048Z,83.65
2019-02-09T04:06:18.921Z,83.63
2019-02-09T04:08:25.392Z,83.56
2019-02-09T04:10:33.474Z,83.18
2019-02-09T04:12:40.473Z,83.21
2019-02-09T04:14:47.319Z,83.19
2019-02-09T04:16:54.398Z,82.98
2019-02-09T04:19:02.018Z,83.02
2019-02-09T04:21:09.695Z,82.96
2019-02-09T04:23:16.827Z,82.82
2019-02-09T04:25:24.910Z,82.77
2019-02-09T04:27:31.770Z,82.80
2019-02-09T04:29:38.730Z,82.84
2019-02-09T04:31:48.253Z,82.73
2019-02-09T04:33:55.335Z,82.74
2019-02-09T04:36:03.155Z,82.77
2019-02-09T04:38:10.209Z,82.63
2019-02-09T04:40:32.424Z,82.46
2019-02-09T04:42:42.403Z,82.40
2019-02-09T04:44:49.790Z,82.51
2019-02-09T04:46:56.610Z,82.46
2019-02-09T04:49:04.288Z,82.28
2019-02-09T04:51:11.439Z,82.48
2019-02-09T04:53:20.361Z,82.43
2019-02-09T04:55:28.476Z,82.40
2019-02-09T04:57:35.291Z,82.00
2019-02-09T04:59:43.492Z,81.91
2019-02-09T05:01:50.151Z,81.81
2019-02-09T05:03:56.998Z,81.60
2019-02-09T05:06:04.215Z,81.39
2019-02-09T05:08:10.997Z,81.40
2019-02-09T05:10:20.577Z,81.24
2019-02-09T05:12:27.230Z,81.08
2019-02-09T05:14:36.157Z,80.99
2019-02-09T05:16:42.890Z,81.04
2019-02-09T05:18:51.048Z,80.98
2019-02-09T05:20:58.051Z,80.98
2019-02-09T05:23:04.959Z,80.97
2019-02-09T05:25:14.200Z,80.80
2019-02-09T05:27:20.913Z,80.76
2019-02-09T05:29:27.380Z,80.72
2019-02-09T05:31:33.783Z,80.76
2019-02-09T05:33:42.101Z,80.59
2019-02-09T05:35:48.929Z,80.65
2019-02-09T05:37:57.967Z,80.53
2019-02-09T05:40:11.525Z,80.34
2019-02-09T05:42:18.491Z,80.43
2019-02-09T05:44:25.496Z,80.18
2019-02-09T05:46:33.083Z,80.33
2019-02-09T05:48:39.891Z,80.54
2019-02-09T05:50:49.203Z,79.18
2019-02-09T05:52:57.578Z,81.15
2019-02-09T05:55:04.518Z,82.04
2019-02-09T05:57:11.312Z,78.67
2019-02-09T05:59:18.122Z,80.31
2019-02-09T06:01:31.863Z,78.64
2019-02-09T06:03:34.462Z,79.31
2019-02-09T06:05:43.638Z,78.55
2019-02-09T06:07:50.393Z,80.69
2019-02-09T06:10:00.054Z,80.34
2019-02-09T06:12:08.082Z,78.12
2019-02-09T06:14:14.672Z,79.89
2019-02-09T06:16:21.471Z,79.54
2019-02-09T06:18:29.618Z,79.25
2019-02-09T06:20:37.703Z,78.31
2019-02-09T06:22:44.342Z,78.24
2019-02-09T06:24:52.561Z,78.79
2019-02-09T06:26:59.448Z,79.30
2019-02-09T06:29:10.929Z,79.35
2019-02-09T06:31:17.511Z,79.74
2019-02-09T06:33:24.498Z,79.40
2019-02-09T06:35:34.572Z,79.70
2019-02-09T06:37:44.442Z,80.16
2019-02-09T06:39:54.392Z,80.14
2019-02-09T06:42:03.271Z,80.94
2019-02-09T06:44:10.091Z,80.67
2019-02-09T06:46:28.602Z,81.11
2019-02-09T06:48:36.542Z,81.08
2019-02-09T06:50:44.533Z,81.14
2019-02-09T06:52:51.248Z,81.25
2019-02-09T06:54:59.131Z,81.21
2019-02-09T06:57:05.673Z,81.42
2019-02-09T06:59:12.751Z,81.62
2019-02-09T07:01:19.743Z,81.67
2019-02-09T07:03:26.542Z,82.12
2019-02-09T07:05:34.302Z,81.70
2019-02-09T07:07:40.682Z,81.59
2019-02-09T07:09:53.789Z,81.83
2019-02-09T07:12:04.142Z,81.64
2019-02-09T07:14:12.662Z,81.72
2019-02-09T07:16:19.491Z,81.61
2019-02-09T07:18:26.371Z,81.36
2019-02-09T07:20:32.953Z,81.70
2019-02-09T07:22:39.763Z,81.26
2019-02-09T07:24:46.832Z,82.95
2019-02-09T07:26:54.431Z,81.19
2019-02-09T07:29:01.242Z,81.04
2019-02-09T07:31:07.992Z,82.60
2019-02-09T07:33:15.025Z,82.30
2019-02-09T07:35:21.832Z,81.10
2019-02-09T07:37:28.652Z,80.61
2019-02-09T07:39:35.037Z,79.54
2019-02-09T07:41:41.802Z,79.52
2019-02-09T07:43:48.449Z,78.23
2019-02-09T07:45:55.167Z,77.96
2019-02-09T07:48:02.231Z,78.10
2019-02-09T07:50:16.073Z,77.67
2019-02-09T07:52:23.022Z,78.33
2019-02-09T07:54:29.832Z,78.70
2019-02-09T07:56:37.869Z,78.64
2019-02-09T07:58:44.704Z,78.66
2019-02-09T08:00:55.913Z,78.20
2019-02-09T08:03:03.554Z,78.37
2019-02-09T08:05:15.292Z,78.39
2019-02-09T08:07:22.353Z,78.00
2019-02-09T08:09:29.421Z,78.19
2019-02-09T08:11:36.481Z,77.84
2019-02-09T08:13:43.474Z,77.48
2019-02-09T08:15:50.090Z,77.39
2019-02-09T08:17:57.058Z,76.77
2019-02-09T08:20:15.990Z,76.84
2019-02-09T08:22:23.458Z,76.72
2019-02-09T08:24:30.760Z,75.71
2019-02-09T08:26:37.864Z,75.50
2019-02-09T08:28:47.590Z,75.56
2019-02-09T08:30:56.004Z,75.68
2019-02-09T08:33:02.760Z,75.56
2019-02-09T08:35:10.020Z,75.70
2019-02-09T08:37:17.220Z,74.92
2019-02-09T08:39:25.115Z,75.04
2019-02-09T08:41:31.839Z,74.39
2019-02-09T08:43:38.550Z,74.31
2019-02-09T08:45:45.609Z,74.96
2019-02-09T08:47:53.051Z,75.17
2019-02-09T08:49:59.847Z,75.44
2019-02-09T08:52:08.222Z,75.53
2019-02-09T08:54:15.177Z,74.67
2019-02-09T08:56:21.931Z,74.70
2019-02-09T08:58:30.136Z,74.60
2019-02-09T09:00:40.617Z,74.13
2019-02-09T09:02:47.498Z,74.37
2019-02-09T09:04:54.247Z,74.18
2019-02-09T09:07:00.700Z,74.64
2019-02-09T09:09:10.427Z,74.01
2019-02-09T09:11:17.048Z,73.05
2019-02-09T09:13:23.638Z,73.22
2019-02-09T09:15:50.835Z,73.63
2019-02-09T09:17:58.140Z,72.90
2019-02-09T09:20:19.702Z,73.02
2019-02-09T09:22:26.300Z,73.03
2019-02-09T09:24:37.620Z,72.86
2019-02-09T09:26:45.710Z,72.84
2019-02-09T09:28:52.698Z,72.54
2019-02-09T09:30:59.440Z,71.80
2019-02-09T09:33:06.543Z,72.28
2019-02-09T09:35:14.515Z,72.07
2019-02-09T09:37:22.760Z,71.40
2019-02-09T09:39:29.654Z,71.07
2019-02-09T09:41:36.094Z,71.22
2019-02-09T09:43:43.040Z,71.26
2019-02-09T09:45:50.625Z,70.96
2019-02-09T09:47:57.357Z,70.63
2019-02-09T09:50:05.671Z,70.60
2019-02-09T09:52:12.380Z,70.22
2019-02-09T09:54:18.850Z,69.96
2019-02-09T09:56:25.850Z,69.72
2019-02-09T09:58:34.260Z,69.71
2019-02-09T10:00:44.057Z,69.08
2019-02-09T10:02:53.419Z,69.09
2019-02-09T10:05:00.179Z,69.04
2019-02-09T10:07:06.978Z,68.91
2019-02-09T10:09:16.738Z,69.17
2019-02-09T10:11:24.040Z,69.46
2019-02-09T10:13:31.003Z,70.13
2019-02-09T10:15:38.797Z,69.60
2019-02-09T10:17:45.740Z,69.55
2019-02-09T10:19:52.740Z,69.05
2019-02-09T10:21:59.527Z,69.02
2019-02-09T10:24:06.470Z,69.62
2019-02-09T10:26:13.467Z,69.40
2019-02-09T10:28:21.899Z,68.34
2019-02-09T10:30:31.684Z,68.79
2019-02-09T10:32:44.529Z,68.51
2019-02-09T10:34:50.948Z,67.90
2019-02-09T10:36:57.615Z,67.63
2019-02-09T10:39:08.222Z,67.21
2019-02-09T10:41:16.945Z,67.02
2019-02-09T10:43:24.574Z,66.85
2019-02-09T10:45:32.756Z,66.48
2019-02-09T10:47:39.836Z,67.22
2019-02-09T10:49:46.694Z,68.04
2019-02-09T10:51:53.774Z,68.93
2019-02-09T10:54:01.855Z,69.84
2019-02-09T10:56:08.780Z,71.03
2019-02-09T10:58:15.618Z,71.00
2019-02-09T11:00:43.314Z,71.56
2019-02-09T11:02:52.215Z,71.49
2019-02-09T11:04:58.777Z,71.30
2019-02-09T11:07:06.037Z,71.12
2019-02-09T11:09:17.158Z,71.07
2019-02-09T11:11:23.912Z,71.47
2019-02-09T11:13:31.115Z,71.87
2019-02-09T11:15:39.240Z,71.41
2019-02-09T11:17:46.235Z,71.53
2019-02-09T11:19:54.034Z,70.91
2019-02-09T11:22:02.234Z,70.74
2019-02-09T11:24:09.354Z,70.69
2019-02-09T11:26:16.062Z,70.22
2019-02-09T11:28:24.137Z,70.22
2019-02-09T11:30:32.617Z,69.80
2019-02-09T11:32:39.813Z,69.70
2019-02-09T11:34:46.598Z,69.79
2019-02-09T11:36:53.455Z,69.24
2019-02-09T11:39:00.500Z,69.40
2019-02-09T11:41:08.415Z,69.13
2019-02-09T11:43:16.813Z,68.23
2019-02-09T11:45:30.377Z,69.26
2019-02-09T11:47:38.514Z,68.36
2019-02-09T11:49:46.876Z,67.90
2019-02-09T11:51:53.293Z,68.11
2019-02-09T11:54:00.396Z,67.89
2019-02-09T11:56:07.455Z,68.00
2019-02-09T11:58:16.233Z,68.11
2019-02-09T12:00:29.235Z,68.64
2019-02-09T12:02:36.123Z,68.78
2019-02-09T12:04:43.338Z,70.31
2019-02-09T12:06:52.913Z,69.71
2019-02-09T12:09:00.234Z,69.71
2019-02-09T12:11:07.114Z,69.85
2019-02-09T12:13:13.814Z,70.35
2019-02-09T12:15:36.834Z,71.04
2019-02-09T12:17:44.474Z,71.68
2019-02-09T12:19:51.314Z,72.84
2019-02-09T12:24:52.014Z,73.28
2019-02-09T12:27:00.433Z,73.80
2019-02-09T12:29:08.795Z,74.76
2019-02-09T12:31:15.954Z,74.80
2019-02-09T12:33:23.588Z,75.45
2019-02-09T12:35:30.689Z,76.10
2019-02-09T12:37:37.959Z,75.36
2019-02-09T12:39:45.093Z,74.74
2019-02-09T12:41:51.703Z,74.27
2019-02-09T12:43:58.557Z,73.95
2019-02-09T12:46:09.738Z,73.25
2019-02-09T12:48:16.621Z,72.99
2019-02-09T12:50:27.414Z,73.21
2019-02-09T12:52:34.194Z,72.81
2019-02-09T12:54:51.914Z,73.13
2019-02-09T12:57:00.665Z,72.32
2019-02-09T12:59:14.622Z,71.68
2019-02-09T13:01:16.859Z,71.82
2019-02-09T13:03:31.260Z,72.78
2019-02-09T13:05:36.453Z,72.43
2019-02-09T13:07:43.699Z,71.56
2019-02-09T13:09:51.374Z,71.41
2019-02-09T13:11:59.095Z,71.54
2019-02-09T13:14:06.197Z,71.95
2019-02-09T13:16:13.833Z,70.62
2019-02-09T13:18:21.254Z,70.23
2019-02-09T13:20:35.001Z,69.83
2019-02-09T13:22:42.495Z,69.56
2019-02-09T13:24:49.435Z,69.37
2019-02-09T13:26:56.785Z,69.08
2019-02-09T13:29:03.682Z,69.46
2019-02-09T13:31:10.756Z,68.98
2019-02-09T13:33:17.855Z,69.14
2019-02-09T13:35:24.674Z,68.97
2019-02-09T13:37:31.834Z,68.47
2019-02-09T13:39:38.794Z,68.04
2019-02-09T13:41:47.396Z,68.01
2019-02-09T13:43:54.514Z,67.13
2019-02-09T13:46:02.194Z,67.55
2019-02-09T13:48:09.996Z,67.02
2019-02-09T13:50:18.274Z,66.25
2019-02-09T13:52:25.600Z,66.50
2019-02-09T13:54:32.515Z,66.49
2019-02-09T13:56:39.393Z,66.49
2019-02-09T13:58:47.214Z,66.74
2019-02-09T14:00:54.684Z,66.46
2019-02-09T14:03:03.159Z,66.77
2019-02-09T14:05:12.462Z,66.44
2019-02-09T14:07:21.127Z,66.49
2019-02-09T14:09:27.952Z,67.17
2019-02-09T14:11:35.032Z,67.60
2019-02-09T14:13:41.902Z,67.32
2019-02-09T14:15:49.857Z,67.28
2019-02-09T14:17:58.752Z,67.30
2019-02-09T14:20:07.942Z,67.61
2019-02-09T14:22:14.841Z,67.56
2019-02-09T14:24:22.213Z,68.23
2019-02-09T14:26:29.943Z,67.89
2019-02-09T14:28:37.272Z,67.82
2019-02-09T14:30:44.542Z,68.39
2019-02-09T14:32:51.939Z,68.61
2019-02-09T14:34:59.290Z,68.68
2019-02-09T14:37:06.812Z,68.71
2019-02-09T14:39:14.242Z,69.07
2019-02-09T14:41:21.332Z,69.16
2019-02-09T14:43:28.320Z,69.20
2019-02-09T14:45:42.143Z,69.47
2019-02-09T14:47:49.362Z,69.66
2019-02-09T14:49:57.562Z,69.86
2019-02-09T14:52:05.202Z,70.32
2019-02-09T14:54:12.393Z,70.28
2019-02-09T14:56:19.632Z,70.80
2019-02-09T14:58:26.610Z,70.77
2019-02-09T15:00:52.018Z,70.83
2019-02-09T15:02:59.657Z,70.79
2019-02-09T15:05:10.639Z,70.86
2019-02-09T15:07:18.098Z,70.88
2019-02-09T15:09:25.089Z,71.00
2019-02-09T15:11:32.228Z,71.75
2019-02-09T15:13:39.189Z,71.48
2019-02-09T15:16:05.681Z,71.54
2019-02-09T15:18:13.749Z,71.53
2019-02-09T15:20:30.593Z,71.67
2019-02-09T15:22:38.257Z,71.77
2019-02-09T15:24:45.376Z,71.88
2019-02-09T15:26:52.679Z,72.04
2019-02-09T15:29:00.022Z,72.21
2019-02-09T15:31:07.271Z,72.35
2019-02-09T15:33:14.230Z,72.63
2019-02-09T15:35:21.490Z,72.94
2019-02-09T15:37:28.918Z,73.47
2019-02-09T15:39:36.242Z,73.68
2019-02-09T15:41:43.800Z,74.02
2019-02-09T15:43:51.610Z,74.36
2019-02-09T15:45:59.139Z,74.64
2019-02-09T15:48:07.071Z,74.79
2019-02-09T15:50:16.921Z,75.08
2019-02-09T15:52:24.440Z,74.97
2019-02-09T15:54:31.866Z,75.12
2019-02-09T15:56:39.219Z,75.43
2019-02-09T15:58:46.576Z,75.74
2019-02-09T16:00:53.487Z,76.05
2019-02-09T16:03:01.988Z,76.10
2019-02-09T16:05:12.896Z,76.33
2019-02-09T16:07:20.313Z,76.62
2019-02-09T16:09:27.568Z,76.65
2019-02-09T16:11:34.519Z,76.72
2019-02-09T16:13:45.745Z,76.88
2019-02-09T16:15:52.657Z,76.84
2019-02-09T16:18:00.690Z,76.90
2019-02-09T16:20:12.240Z,77.22
2019-02-09T16:22:20.258Z,77.83
2019-02-09T16:24:29.116Z,78.08
2019-02-09T16:26:36.538Z,78.46
2019-02-09T16:28:44.968Z,78.66
2019-02-09T16:30:52.486Z,79.31
2019-02-09T16:32:59.667Z,79.63
2019-02-09T16:35:11.585Z,79.80
2019-02-09T16:37:18.677Z,80.21
2019-02-09T16:39:25.814Z,80.52
2019-02-09T16:41:34.324Z,80.72
2019-02-09T16:43:42.681Z,80.72
2019-02-09T16:45:49.823Z,81.00
2019-02-09T16:47:56.908Z,81.15
2019-02-09T16:50:05.132Z,81.62
2019-02-09T16:52:12.406Z,81.79
2019-02-09T16:54:19.576Z,82.13
2019-02-09T16:57:14.186Z,81.75
2019-02-09T16:59:21.832Z,81.79
2019-02-09T17:01:29.039Z,81.36
2019-02-09T17:03:36.539Z,81.28
2019-02-09T17:05:43.838Z,81.26
2019-02-09T17:07:51.112Z,81.76
2019-02-09T17:09:58.539Z,81.45
2019-02-09T17:12:07.248Z,81.64
2019-02-09T17:14:15.388Z,81.25
2019-02-09T17:16:22.579Z,80.94
2019-02-09T17:18:29.647Z,80.46
2019-02-09T17:20:37.226Z,80.01
2019-02-09T17:22:44.238Z,80.18
2019-02-09T17:24:51.319Z,79.58
2019-02-09T17:26:58.959Z,79.48
2019-02-09T17:29:06.521Z,79.49
2019-02-09T17:31:13.639Z,79.44
2019-02-09T17:33:20.835Z,79.34
2019-02-09T17:35:28.260Z,79.01
2019-02-09T17:37:35.440Z,78.68
2019-02-09T17:39:42.999Z,78.62
2019-02-09T17:41:50.341Z,78.34
2019-02-09T17:43:57.887Z,78.23
2019-02-09T17:46:11.639Z,78.33
2019-02-09T17:48:19.241Z,77.92
2019-02-09T17:50:26.498Z,77.87
2019-02-09T17:52:33.978Z,77.86
2019-02-09T17:54:41.639Z,78.39
2019-02-09T17:56:48.600Z,78.29
2019-02-09T17:58:55.879Z,77.65
2019-02-09T18:01:23.499Z,76.92
2019-02-09T18:03:30.445Z,76.84
2019-02-09T18:05:37.978Z,76.60
2019-02-09T18:07:45.158Z,76.75
2019-02-09T18:09:52.288Z,77.05
2019-02-09T18:12:00.179Z,77.01
2019-02-09T18:14:08.160Z,77.42
2019-02-09T18:16:16.840Z,76.85
2019-02-09T18:18:25.258Z,76.50
2019-02-09T18:20:32.379Z,76.88
2019-02-09T18:22:40.348Z,77.44
2019-02-09T18:24:47.499Z,77.88
2019-02-09T18:26:55.039Z,78.59
2019-02-09T18:29:02.965Z,78.67
2019-02-09T18:31:10.067Z,79.25
2019-02-09T18:33:33.019Z,79.32
2019-02-09T18:38:13.278Z,80.01
2019-02-09T18:40:26.786Z,80.24
2019-02-09T18:42:33.839Z,80.45
2019-02-09T18:44:41.034Z,80.31
2019-02-09T18:46:48.327Z,80.49
2019-02-09T18:48:55.479Z,80.74
2019-02-09T18:51:03.520Z,80.34
2019-02-09T18:53:10.693Z,80.04
2019-02-09T18:55:26.478Z,79.60
2019-02-09T18:57:33.543Z,79.17
2019-02-09T18:59:40.720Z,79.19
2019-02-09T19:01:47.806Z,79.20
2019-02-09T19:03:54.959Z,79.47
2019-02-09T19:06:02.179Z,79.44
2019-02-09T19:08:10.998Z,79.01
2019-02-09T19:10:21.859Z,78.59
2019-02-09T19:12:30.224Z,78.46
2019-02-09T19:14:37.439Z,78.13
2019-02-09T19:16:44.580Z,78.19
2019-02-09T19:18:51.618Z,78.10
2019-02-09T19:21:00.839Z,77.99
2019-02-09T19:23:08.260Z,77.42
2019-02-09T19:25:21.778Z,77.29
2019-02-09T19:27:28.960Z,76.97
2019-02-09T19:29:36.060Z,76.92
2019-02-09T19:31:43.099Z,76.84
2019-02-09T19:33:50.740Z,76.73
2019-02-09T19:35:57.786Z,76.50
2019-02-09T19:38:05.619Z,76.27
2019-02-09T19:40:20.459Z,76.11
2019-02-09T19:42:28.160Z,76.11
2019-02-09T19:44:35.459Z,75.73
2019-02-09T19:46:42.460Z,75.58
2019-02-09T19:48:50.099Z,75.54
2019-02-09T19:50:57.447Z,75.58
2019-02-09T19:53:04.439Z,75.49
2019-02-09T19:55:18.558Z,75.63
2019-02-09T19:57:25.920Z,75.40
2019-02-09T19:59:33.026Z,75.46
2019-02-09T20:01:40.235Z,75.60
2019-02-09T20:03:47.280Z,75.66
2019-02-09T20:05:54.700Z,76.02
2019-02-09T20:08:02.241Z,76.19
2019-02-09T20:10:13.625Z,76.65
2019-02-09T20:12:21.166Z,76.43
2019-02-09T20:14:28.919Z,76.65
2019-02-09T20:16:36.538Z,77.26
2019-02-09T20:18:43.899Z,77.05
2019-02-09T20:20:51.438Z,77.65
2019-02-09T20:22:58.733Z,78.00
2019-02-09T20:25:10.201Z,77.60
2019-02-09T20:27:17.750Z,77.98
2019-02-09T20:29:25.438Z,78.28
2019-02-09T20:31:32.382Z,78.35
2019-02-09T20:33:39.559Z,78.32
2019-02-09T20:35:46.600Z,78.42
2019-02-09T20:37:54.266Z,78.28
2019-02-09T20:40:01.168Z,78.43
2019-02-09T20:42:09.377Z,78.52
2019-02-09T20:44:18.676Z,78.61
2019-02-09T20:46:27.110Z,78.79
2019-02-09T20:48:34.606Z,79.07
2019-02-09T20:50:41.646Z,78.96
2019-02-09T20:52:48.933Z,79.05
2019-02-09T20:54:55.939Z,79.12
2019-02-09T20:57:03.011Z,79.17
2019-02-09T20:59:11.558Z,79.41
2019-02-09T21:01:18.600Z,79.53
2019-02-09T21:03:25.711Z,79.69
2019-02-09T21:05:36.468Z,79.85
2019-02-09T21:07:41.717Z,79.61
2019-02-09T21:09:50.061Z,79.45
2019-02-09T21:11:57.450Z,79.35
2019-02-09T21:14:05.819Z,79.67
2019-02-09T21:16:13.067Z,79.60
2019-02-09T21:18:20.085Z,79.51
2019-02-09T21:20:27.384Z,79.26
2019-02-09T21:22:34.730Z,79.53
2019-02-09T21:24:41.920Z,79.44
2019-02-09T21:26:49.111Z,79.70
2019-02-09T21:28:56.251Z,79.66
2019-02-09T21:31:03.668Z,79.71
2019-02-09T21:33:10.719Z,80.07
2019-02-09T21:35:19.105Z,80.27
2019-02-09T21:37:26.113Z,80.31
2019-02-09T21:39:34.083Z,80.16
2019-02-09T21:41:41.416Z,80.33
2019-02-09T21:43:48.713Z,79.86
2019-02-09T21:45:56.405Z,79.49
2019-02-09T21:48:03.580Z,78.99
2019-02-09T21:50:17.475Z,79.10
2019-02-09T21:52:24.659Z,78.10
2019-02-09T21:54:31.667Z,77.88
2019-02-09T21:56:38.780Z,77.92
2019-02-09T21:58:46.504Z,77.50
2019-02-09T22:00:53.866Z,77.25
2019-02-09T22:03:01.319Z,77.19
2019-02-09T22:05:12.102Z,76.80
2019-02-09T22:07:19.521Z,76.86
2019-02-09T22:09:27.236Z,76.52
2019-02-09T22:11:34.623Z,76.05
2019-02-09T22:13:41.951Z,75.69
2019-02-09T22:15:49.260Z,75.69
2019-02-09T22:17:56.231Z,75.48
2019-02-09T22:20:03.321Z,75.48
2019-02-09T22:22:10.530Z,75.49
2019-02-09T22:24:18.530Z,75.59
2019-02-09T22:26:25.599Z,75.36
2019-02-09T22:28:32.671Z,75.63
2019-02-09T22:30:39.628Z,75.34
2019-02-09T22:32:46.613Z,75.43
2019-02-09T22:34:55.329Z,75.60
2019-02-09T22:37:02.619Z,75.57
2019-02-09T22:39:10.359Z,75.08
2019-02-09T22:41:18.284Z,75.31
2019-02-09T22:43:26.243Z,75.60
2019-02-09T22:45:34.983Z,75.64
2019-02-09T22:47:41.643Z,75.75
2019-02-09T22:49:48.503Z,75.80
2019-02-09T22:51:57.016Z,76.11
2019-02-09T22:54:03.825Z,76.16
2019-02-09T22:56:10.552Z,76.06
2019-02-09T22:58:18.628Z,76.05
2019-02-09T23:00:51.764Z,76.04
2019-02-09T23:02:59.677Z,75.77
2019-02-09T23:05:10.677Z,75.57
2019-02-09T23:07:17.387Z,75.94
2019-02-09T23:09:24.016Z,76.45
2019-02-09T23:11:30.636Z,76.25
2019-02-09T23:13:37.682Z,76.42
2019-02-09T23:15:44.211Z,76.47
2019-02-09T23:17:52.314Z,76.94
2019-02-09T23:19:59.280Z,76.95
2019-02-09T23:22:06.300Z,76.94
2019-02-09T23:24:13.288Z,76.87
2019-02-09T23:26:20.005Z,76.90
2019-02-09T23:28:27.689Z,76.98
2019-02-09T23:30:34.646Z,76.99
2019-02-09T23:32:41.476Z,76.98
2019-02-09T23:34:48.300Z,76.86
2019-02-09T23:36:54.802Z,76.91
2019-02-09T23:39:02.610Z,76.90
2019-02-09T23:41:10.780Z,76.97
2019-02-09T23:43:17.671Z,76.99
2019-02-09T23:45:24.238Z,77.29
2019-02-09T23:47:31.563Z,76.41
2019-02-09T23:49:38.629Z,76.45
2019-02-09T23:51:46.623Z,76.47
2019-02-09T23:53:53.553Z,76.57
2019-02-09T23:56:02.051Z,76.74
2019-02-09T23:58:08.783Z,76.68
